createdAt,value
2018-06-27T00:00:12.817Z,32.07
2018-06-27T00:02:42.198Z,34.53
2018-06-27T00:05:11.451Z,29.67
2018-06-27T00:07:40.753Z,32.83
2018-06-27T00:10:10.038Z,30.90
2018-06-27T00:12:39.268Z,32.93
2018-06-27T00:15:08.541Z,33.30
2018-06-27T00:17:37.437Z,31.27
2018-06-27T00:20:06.783Z,32.13
2018-06-27T00:22:36.131Z,35.33
2018-06-27T00:25:05.454Z,35.13
2018-06-27T00:27:34.636Z,31.63
2018-06-27T00:30:03.571Z,31.67
2018-06-27T00:32:32.648Z,34.97
2018-06-27T00:35:01.946Z,31.30
2018-06-27T00:37:37.795Z,30.47
2018-06-27T00:40:07.027Z,32.23
2018-06-27T00:42:36.336Z,30.57
2018-06-27T00:45:06.611Z,33.37
2018-06-27T00:47:35.828Z,33.30
2018-06-27T00:50:08.164Z,34.00
2018-06-27T00:52:37.358Z,30.67
2018-06-27T00:55:07.025Z,30.40
2018-06-27T00:57:36.264Z,31.70
2018-06-27T01:00:05.637Z,36.33
2018-06-27T01:02:34.847Z,35.30
2018-06-27T01:05:04.107Z,29.87
2018-06-27T01:07:33.306Z,29.33
2018-06-27T01:10:02.504Z,30.93
2018-06-27T01:12:31.707Z,29.83
2018-06-27T01:15:00.908Z,35.00
2018-06-27T01:17:30.139Z,31.43
2018-06-27T01:19:59.375Z,28.93
2018-06-27T01:22:28.543Z,31.63
2018-06-27T01:24:57.782Z,36.20
2018-06-27T01:27:26.974Z,32.33
2018-06-27T01:29:56.215Z,31.77
2018-06-27T01:32:25.453Z,33.83
2018-06-27T01:34:54.630Z,33.77
2018-06-27T01:37:23.852Z,32.23
2018-06-27T01:39:53.016Z,32.53
2018-06-27T01:42:21.901Z,34.90
2018-06-27T01:44:51.096Z,34.93
2018-06-27T01:47:20.275Z,31.73
2018-06-27T01:49:49.503Z,30.87
2018-06-27T01:52:18.945Z,35.23
2018-06-27T01:54:48.172Z,32.37
2018-06-27T01:57:17.390Z,37.07
2018-06-27T01:59:46.614Z,34.40
2018-06-27T02:02:15.795Z,31.53
2018-06-27T02:04:45.018Z,31.57
2018-06-27T02:07:14.190Z,33.03
2018-06-27T02:09:43.438Z,30.77
2018-06-27T02:12:12.637Z,30.10
2018-06-27T02:14:41.847Z,36.50
2018-06-27T02:17:11.074Z,33.47
2018-06-27T02:19:40.077Z,37.43
2018-06-27T02:22:09.175Z,37.83
2018-06-27T02:24:38.438Z,34.23
2018-06-27T02:27:07.647Z,35.93
2018-06-27T02:29:36.887Z,36.23
2018-06-27T02:32:06.096Z,36.33
2018-06-27T02:34:35.303Z,35.37
2018-06-27T02:37:04.492Z,33.00
2018-06-27T02:39:33.727Z,36.50
2018-06-27T02:42:02.930Z,38.03
2018-06-27T02:44:32.114Z,34.43
2018-06-27T02:47:01.327Z,34.77
2018-06-27T02:49:30.572Z,40.43
2018-06-27T02:51:59.800Z,35.83
2018-06-27T02:54:28.996Z,37.23
2018-06-27T02:56:58.595Z,35.03
2018-06-27T02:59:27.832Z,36.73
2018-06-27T03:01:57.231Z,33.03
2018-06-27T03:04:26.436Z,36.43
2018-06-27T03:06:55.723Z,35.03
2018-06-27T03:09:25.031Z,35.97
2018-06-27T03:11:54.264Z,38.30
2018-06-27T03:14:23.459Z,32.93
2018-06-27T03:16:52.849Z,33.60
2018-06-27T03:19:22.089Z,34.20
2018-06-27T03:21:51.299Z,37.47
2018-06-27T03:24:20.558Z,36.40
2018-06-27T03:26:49.825Z,35.47
2018-06-27T03:29:19.442Z,37.97
2018-06-27T03:31:48.643Z,38.77
2018-06-27T03:34:17.861Z,36.30
2018-06-27T03:36:47.060Z,34.23
2018-06-27T03:39:16.267Z,37.07
2018-06-27T03:41:45.479Z,35.67
2018-06-27T03:44:15.453Z,33.00
2018-06-27T03:46:44.679Z,33.53
2018-06-27T03:49:13.871Z,35.70
2018-06-27T03:51:43.240Z,33.10
2018-06-27T03:54:12.486Z,33.10
2018-06-27T03:56:41.732Z,34.30
2018-06-27T03:59:10.959Z,32.07
2018-06-27T04:01:40.163Z,33.53
2018-06-27T04:04:09.367Z,34.83
2018-06-27T04:06:38.628Z,31.07
2018-06-27T04:09:09.940Z,30.77
2018-06-27T04:11:39.708Z,31.83
2018-06-27T04:14:08.923Z,33.17
2018-06-27T04:16:38.131Z,30.13
2018-06-27T04:19:07.371Z,36.57
2018-06-27T04:21:36.743Z,34.27
2018-06-27T04:24:06.261Z,37.03
2018-06-27T04:26:35.470Z,36.70
2018-06-27T04:29:05.053Z,35.73
2018-06-27T04:31:34.349Z,32.47
2018-06-27T04:34:03.798Z,33.87
2018-06-27T04:36:33.142Z,37.37
2018-06-27T04:39:02.341Z,36.30
2018-06-27T04:41:31.582Z,35.57
2018-06-27T04:44:00.806Z,33.97
2018-06-27T04:46:30.006Z,34.47
2018-06-27T04:48:59.208Z,32.20
2018-06-27T04:51:28.427Z,33.03
2018-06-27T04:53:57.755Z,34.97
2018-06-27T04:56:27.519Z,34.23
2018-06-27T04:58:56.735Z,35.90
2018-06-27T05:01:25.965Z,36.90
2018-06-27T05:03:55.163Z,34.87
2018-06-27T05:06:24.395Z,36.27
2018-06-27T05:08:53.604Z,37.47
2018-06-27T05:11:22.895Z,35.37
2018-06-27T05:13:52.150Z,35.90
2018-06-27T05:16:21.435Z,33.17
2018-06-27T05:18:51.532Z,36.37
2018-06-27T05:21:20.783Z,35.53
2018-06-27T05:23:50.055Z,34.27
2018-06-27T05:26:19.277Z,36.80
2018-06-27T05:28:48.487Z,34.27
2018-06-27T05:31:17.675Z,33.23
2018-06-27T05:33:46.955Z,34.23
2018-06-27T05:36:16.301Z,35.53
2018-06-27T05:38:45.531Z,33.97
2018-06-27T05:41:14.740Z,34.50
2018-06-27T05:43:43.956Z,37.40
2018-06-27T05:46:13.166Z,36.63
2018-06-27T05:48:42.551Z,39.73
2018-06-27T05:51:12.043Z,38.27
2018-06-27T05:53:41.302Z,37.77
2018-06-27T05:56:10.723Z,37.27
2018-06-27T05:58:39.959Z,33.53
2018-06-27T06:01:09.166Z,36.27
2018-06-27T06:03:38.573Z,37.73
2018-06-27T06:06:07.802Z,31.20
2018-06-27T06:08:37.076Z,34.10
2018-06-27T06:11:06.624Z,35.13
2018-06-27T06:13:35.865Z,34.63
2018-06-27T06:16:05.316Z,33.03
2018-06-27T06:18:34.535Z,33.67
2018-06-27T06:21:03.778Z,32.33
2018-06-27T06:23:32.988Z,30.83
2018-06-27T06:26:02.218Z,30.50
2018-06-27T06:28:31.421Z,33.03
2018-06-27T06:31:00.661Z,33.20
2018-06-27T06:33:29.881Z,30.40
2018-06-27T06:35:59.115Z,28.90
2018-06-27T06:38:28.343Z,28.30
2018-06-27T06:40:57.887Z,29.43
2018-06-27T06:43:27.173Z,26.10
2018-06-27T06:45:56.472Z,29.00
2018-06-27T06:48:25.668Z,27.43
2018-06-27T06:50:54.952Z,29.43
2018-06-27T06:53:24.196Z,28.60
2018-06-27T06:55:53.467Z,27.10
2018-06-27T06:58:22.711Z,25.87
2018-06-27T07:00:51.936Z,26.97
2018-06-27T07:03:21.178Z,26.23
2018-06-27T07:05:50.428Z,25.10
2018-06-27T07:08:20.066Z,39.07
2018-06-27T07:10:49.180Z,24.40
2018-06-27T07:13:18.736Z,25.03
2018-06-27T07:15:48.120Z,25.23
2018-06-27T07:18:17.620Z,23.47
2018-06-27T07:20:46.808Z,22.60
2018-06-27T07:23:16.090Z,23.43
2018-06-27T07:25:45.478Z,26.27
2018-06-27T07:28:14.788Z,23.57
2018-06-27T07:30:44.039Z,22.63
2018-06-27T07:33:13.244Z,22.70
2018-06-27T07:35:42.443Z,22.40
2018-06-27T07:38:11.815Z,23.00
2018-06-27T07:40:41.053Z,20.87
2018-06-27T07:43:10.272Z,20.30
2018-06-27T07:45:39.936Z,21.87
2018-06-27T07:48:09.166Z,19.60
2018-06-27T07:50:38.417Z,20.20
2018-06-27T07:53:07.661Z,27.73
2018-06-27T07:55:36.919Z,24.77
2018-06-27T07:58:06.235Z,22.90
2018-06-27T08:00:35.512Z,21.13
2018-06-27T08:03:04.883Z,19.90
2018-06-27T08:05:34.256Z,23.17
2018-06-27T08:08:03.511Z,18.70
2018-06-27T08:10:32.753Z,16.40
2018-06-27T08:13:02.016Z,17.13
2018-06-27T08:15:30.915Z,18.30
2018-06-27T08:18:00.176Z,15.60
2018-06-27T08:20:29.303Z,18.60
2018-06-27T08:22:58.614Z,16.57
2018-06-27T08:25:27.956Z,15.93
2018-06-27T08:27:57.233Z,15.63
2018-06-27T08:30:26.537Z,16.13
2018-06-27T08:32:56.151Z,15.43
2018-06-27T08:35:25.512Z,16.57
2018-06-27T08:37:54.774Z,16.47
2018-06-27T08:40:24.332Z,16.03
2018-06-27T08:42:53.575Z,15.13
2018-06-27T08:45:23.633Z,15.93
2018-06-27T08:47:52.883Z,14.93
2018-06-27T08:50:22.207Z,15.07
2018-06-27T08:52:51.445Z,15.83
2018-06-27T08:55:20.705Z,15.90
2018-06-27T08:57:49.953Z,14.93
2018-06-27T09:00:19.501Z,16.80
2018-06-27T09:02:48.947Z,18.97
2018-06-27T09:05:18.480Z,17.27
2018-06-27T09:07:47.738Z,13.57
2018-06-27T09:10:16.936Z,24.40
2018-06-27T09:12:46.164Z,14.73
2018-06-27T09:15:15.393Z,13.47
2018-06-27T09:17:44.608Z,11.83
2018-06-27T09:20:13.838Z,12.47
2018-06-27T09:22:43.066Z,8.77
2018-06-27T09:25:12.355Z,10.40
2018-06-27T09:27:41.614Z,7.90
2018-06-27T09:30:11.089Z,10.40
2018-06-27T09:32:40.346Z,6.93
2018-06-27T09:35:09.564Z,7.10
2018-06-27T09:37:38.805Z,9.33
2018-06-27T09:40:08.023Z,8.63
2018-06-27T09:42:37.291Z,12.50
2018-06-27T09:45:06.515Z,10.00
2018-06-27T09:47:36.059Z,11.07
2018-06-27T09:50:05.884Z,9.17
2018-06-27T09:52:35.120Z,9.43
2018-06-27T09:55:04.415Z,10.93
2018-06-27T09:57:33.307Z,7.17
2018-06-27T10:00:02.391Z,9.63
2018-06-27T10:02:31.931Z,7.77
2018-06-27T10:05:02.009Z,8.17
2018-06-27T10:07:31.339Z,7.17
2018-06-27T10:10:00.526Z,7.67
2018-06-27T10:12:29.724Z,8.40
2018-06-27T10:14:59.346Z,8.03
2018-06-27T10:17:28.817Z,7.33
2018-06-27T10:19:58.073Z,8.40
2018-06-27T10:22:27.389Z,9.10
2018-06-27T10:24:56.648Z,9.13
2018-06-27T10:27:25.982Z,6.90
2018-06-27T10:29:55.197Z,9.33
2018-06-27T10:32:24.686Z,12.07
2018-06-27T10:34:54.332Z,7.37
2018-06-27T10:37:23.507Z,6.10
2018-06-27T10:39:52.720Z,7.13
2018-06-27T10:42:22.170Z,5.70
2018-06-27T10:44:51.493Z,7.07
2018-06-27T10:47:20.805Z,6.30
2018-06-27T10:49:50.094Z,7.03
2018-06-27T10:52:19.362Z,5.40
2018-06-27T10:54:51.566Z,6.47
2018-06-27T10:57:21.658Z,7.40
2018-06-27T10:59:51.989Z,5.63
2018-06-27T11:02:22.018Z,5.10
2018-06-27T11:04:51.284Z,4.97
2018-06-27T11:07:20.496Z,8.57
2018-06-27T11:09:49.707Z,18.03
2018-06-27T11:12:18.908Z,7.23
2018-06-27T11:14:48.128Z,5.53
2018-06-27T11:17:17.380Z,5.07
2018-06-27T11:19:46.588Z,5.17
2018-06-27T11:22:15.861Z,6.60
2018-06-27T11:24:45.097Z,4.90
2018-06-27T11:27:14.369Z,4.50
2018-06-27T11:29:43.582Z,5.90
2018-06-27T11:32:12.812Z,4.57
2018-06-27T11:34:42.152Z,3.60
2018-06-27T11:37:11.560Z,5.97
2018-06-27T11:39:41.061Z,5.30
2018-06-27T11:42:10.304Z,6.23
2018-06-27T11:44:39.940Z,8.20
2018-06-27T11:47:09.157Z,7.03
2018-06-27T11:49:38.616Z,6.83
2018-06-27T11:52:07.843Z,4.93
2018-06-27T11:54:37.282Z,4.50
2018-06-27T11:57:06.567Z,4.70
2018-06-27T11:59:35.788Z,5.67
2018-06-27T12:02:05.264Z,5.03
2018-06-27T12:04:34.499Z,5.03
2018-06-27T12:07:03.801Z,4.17
2018-06-27T12:09:33.068Z,3.40
2018-06-27T12:12:02.411Z,3.10
2018-06-27T12:14:31.704Z,5.30
2018-06-27T12:17:01.015Z,7.03
2018-06-27T12:19:34.595Z,4.80
2018-06-27T12:22:04.025Z,9.37
2018-06-27T12:24:33.374Z,3.40
2018-06-27T12:27:02.573Z,2.30
2018-06-27T12:29:31.813Z,5.30
2018-06-27T12:32:01.124Z,7.90
2018-06-27T12:34:30.392Z,2.47
2018-06-27T12:37:00.371Z,11.90
2018-06-27T12:39:29.692Z,4.43
2018-06-27T12:41:58.952Z,3.40
2018-06-27T12:44:27.898Z,1.97
2018-06-27T12:46:57.001Z,2.40
2018-06-27T12:49:26.317Z,3.53
2018-06-27T12:51:55.511Z,4.10
2018-06-27T12:54:24.820Z,3.63
2018-06-27T12:56:54.059Z,3.60
2018-06-27T12:59:23.995Z,3.27
2018-06-27T13:01:53.388Z,6.43
2018-06-27T13:04:22.626Z,1.67
2018-06-27T13:06:51.874Z,6.10
2018-06-27T13:09:21.209Z,2.33
2018-06-27T13:11:50.425Z,3.57
2018-06-27T13:14:19.664Z,2.60
2018-06-27T13:16:48.963Z,2.27
2018-06-27T13:19:18.190Z,3.63
2018-06-27T13:21:47.827Z,2.33
2018-06-27T13:24:17.235Z,2.37
2018-06-27T13:26:46.423Z,2.63
2018-06-27T13:29:15.525Z,3.00
2018-06-27T13:31:44.776Z,2.43
2018-06-27T13:34:14.215Z,3.47
2018-06-27T13:36:43.464Z,2.40
2018-06-27T13:39:12.741Z,3.43
2018-06-27T13:41:46.877Z,2.50
2018-06-27T13:44:16.084Z,3.40
2018-06-27T13:46:45.408Z,4.53
2018-06-27T13:49:14.670Z,1.97
2018-06-27T13:51:43.932Z,5.23
2018-06-27T13:54:13.175Z,3.97
2018-06-27T13:56:42.439Z,2.60
2018-06-27T13:59:11.743Z,2.00
2018-06-27T14:01:41.017Z,3.90
2018-06-27T14:04:10.355Z,3.37
2018-06-27T14:06:39.642Z,4.27
2018-06-27T14:09:09.770Z,2.07
2018-06-27T14:11:39.052Z,2.17
2018-06-27T14:14:08.730Z,4.83
2018-06-27T14:16:37.935Z,2.03
2018-06-27T14:19:07.131Z,2.63
2018-06-27T14:21:36.368Z,3.03
2018-06-27T14:24:05.725Z,4.27
2018-06-27T14:26:35.866Z,2.80
2018-06-27T14:29:05.157Z,3.77
2018-06-27T14:31:34.562Z,3.87
2018-06-27T14:34:03.823Z,5.53
2018-06-27T14:36:33.112Z,3.57
2018-06-27T14:39:02.340Z,2.20
2018-06-27T14:41:31.627Z,3.37
2018-06-27T14:44:00.894Z,3.23
2018-06-27T14:46:30.532Z,3.33
2018-06-27T14:48:59.793Z,3.73
2018-06-27T14:51:29.951Z,3.17
2018-06-27T14:53:59.197Z,3.33
2018-06-27T14:56:28.489Z,2.60
2018-06-27T14:59:04.188Z,3.17
2018-06-27T15:01:33.656Z,2.73
2018-06-27T15:04:02.955Z,3.07
2018-06-27T15:06:32.236Z,3.60
2018-06-27T15:09:01.522Z,1.80
2018-06-27T15:11:30.770Z,2.93
2018-06-27T15:14:00.082Z,5.47
2018-06-27T15:16:29.344Z,4.17
2018-06-27T15:18:58.596Z,3.57
2018-06-27T15:21:27.866Z,2.17
2018-06-27T15:23:57.388Z,2.07
2018-06-27T15:26:26.645Z,2.10
2018-06-27T15:28:56.160Z,2.80
2018-06-27T15:31:25.411Z,1.70
2018-06-27T15:33:54.761Z,2.40
2018-06-27T15:36:24.504Z,3.93
2018-06-27T15:38:53.745Z,4.00
2018-06-27T15:41:23.014Z,1.97
2018-06-27T15:43:52.287Z,1.60
2018-06-27T15:46:21.642Z,3.63
2018-06-27T15:48:50.924Z,2.80
2018-06-27T15:51:26.799Z,3.17
2018-06-27T15:53:56.068Z,1.80
2018-06-27T15:56:25.373Z,3.30
2018-06-27T15:58:55.034Z,3.20
2018-06-27T16:01:24.328Z,2.97
2018-06-27T16:03:53.781Z,3.90
2018-06-27T16:06:23.277Z,1.40
2018-06-27T16:08:53.319Z,2.83
2018-06-27T16:11:22.435Z,2.47
2018-06-27T16:13:51.471Z,2.83
2018-06-27T16:16:20.739Z,1.80
2018-06-27T16:18:50.099Z,3.50
2018-06-27T16:21:19.336Z,3.70
2018-06-27T16:23:48.630Z,5.40
2018-06-27T16:26:18.923Z,4.47
2018-06-27T16:28:48.233Z,4.37
2018-06-27T16:31:17.690Z,3.57
2018-06-27T16:33:46.972Z,4.07
2018-06-27T16:36:16.220Z,2.00
2018-06-27T16:38:45.533Z,4.80
2018-06-27T16:41:14.450Z,2.63
2018-06-27T16:43:43.636Z,4.57
2018-06-27T16:46:13.142Z,3.30
2018-06-27T16:48:42.359Z,2.63
2018-06-27T16:51:11.876Z,2.87
2018-06-27T16:53:41.166Z,2.50
2018-06-27T16:56:10.406Z,2.50
2018-06-27T16:58:39.716Z,2.90
2018-06-27T17:01:09.152Z,2.60
2018-06-27T17:03:38.344Z,4.27
2018-06-27T17:06:11.465Z,4.33
2018-06-27T17:08:40.833Z,2.67
2018-06-27T17:11:10.133Z,4.00
2018-06-27T17:13:39.432Z,3.90
2018-06-27T17:16:09.114Z,4.30
2018-06-27T17:18:38.424Z,4.13
2018-06-27T17:21:08.164Z,2.63
2018-06-27T17:23:37.957Z,3.03
2018-06-27T17:31:59.399Z,3.70
2018-06-27T17:34:28.726Z,4.23
2018-06-27T17:37:02.131Z,3.70
2018-06-27T17:39:33.253Z,2.67
2018-06-27T17:42:02.589Z,4.57
2018-06-27T17:44:32.452Z,3.90
2018-06-27T17:47:02.800Z,3.30
2018-06-27T17:49:32.550Z,3.77
2018-06-27T17:52:06.373Z,5.50
2018-06-27T17:54:35.710Z,2.70
2018-06-27T17:57:05.136Z,3.43
2018-06-27T17:59:37.063Z,3.70
2018-06-27T18:02:12.236Z,5.03
2018-06-27T18:04:43.146Z,3.37
2018-06-27T18:07:12.483Z,3.13
2018-06-27T18:09:41.821Z,6.23
2018-06-27T18:12:12.162Z,8.30
2018-06-27T18:14:41.654Z,3.60
2018-06-27T18:17:11.462Z,3.37
2018-06-27T18:19:41.458Z,4.27
2018-06-27T18:22:11.782Z,5.83
2018-06-27T18:24:41.505Z,2.87
2018-06-27T18:40:12.083Z,2.40
2018-06-27T18:42:42.754Z,3.97
2018-06-27T18:45:13.049Z,2.60
2018-06-27T18:47:43.207Z,2.57
2018-06-27T18:50:12.638Z,2.17
2018-06-27T18:52:43.024Z,2.73
2018-06-27T18:55:13.307Z,2.40
2018-06-27T18:57:47.164Z,2.47
2018-06-27T19:00:16.919Z,2.53
2018-06-27T19:02:47.686Z,2.10
2018-06-27T19:05:17.283Z,4.87
2018-06-27T19:07:46.843Z,1.80
2018-06-27T19:10:16.818Z,2.37
2018-06-27T19:12:52.877Z,2.33
2018-06-27T19:15:22.596Z,5.30
2018-06-27T19:17:52.034Z,2.03
2018-06-27T19:20:23.517Z,5.33
2018-06-27T19:22:53.404Z,2.40
2018-06-27T19:25:22.850Z,3.07
2018-06-27T19:27:52.372Z,3.20
2018-06-27T19:30:22.391Z,5.23
2018-06-27T19:32:51.755Z,4.93
2018-06-27T19:35:21.168Z,2.53
2018-06-27T19:37:50.585Z,6.20
2018-06-27T19:40:20.356Z,4.23
2018-06-27T19:42:49.704Z,2.30
2018-06-27T19:45:19.491Z,2.80
2018-06-27T19:47:53.530Z,2.83
2018-06-27T19:50:23.100Z,3.87
2018-06-27T19:52:52.572Z,5.57
2018-06-27T19:55:22.242Z,4.97
2018-06-27T19:57:51.569Z,3.77
2018-06-27T20:00:21.229Z,3.53
2018-06-27T20:02:51.170Z,3.77
2018-06-27T20:05:21.069Z,5.27
2018-06-27T20:07:50.613Z,4.90
2018-06-27T20:10:20.030Z,4.27
2018-06-27T20:12:50.331Z,5.53
2018-06-27T20:15:20.732Z,4.33
2018-06-27T20:17:50.299Z,3.10
2018-06-27T20:20:19.742Z,4.13
2018-06-27T20:22:53.467Z,2.70
2018-06-27T20:25:25.021Z,4.53
2018-06-27T20:27:54.393Z,2.20
2018-06-27T20:30:24.819Z,4.33
2018-06-27T20:32:54.228Z,5.13
2018-06-27T20:35:24.955Z,5.27
2018-06-27T20:37:54.482Z,8.63
2018-06-27T20:40:33.163Z,4.10
2018-06-27T20:43:02.795Z,5.90
2018-06-27T20:55:19.986Z,2.30
2018-06-27T20:57:49.246Z,4.60
2018-06-27T21:00:18.667Z,3.83
2018-06-27T21:02:48.619Z,6.40
2018-06-27T21:05:17.844Z,8.83
2018-06-27T21:07:47.817Z,6.73
2018-06-27T21:10:17.144Z,6.27
2018-06-27T21:12:46.402Z,3.50
2018-06-27T21:15:16.532Z,3.37
2018-06-27T21:17:45.903Z,7.07
2018-06-27T21:20:15.907Z,2.40
2018-06-27T21:22:45.177Z,2.10
2018-06-27T21:25:14.488Z,2.47
2018-06-27T21:27:43.777Z,5.97
2018-06-27T21:30:13.554Z,6.93
2018-06-27T21:32:47.463Z,2.60
2018-06-27T21:35:16.712Z,2.40
2018-06-27T21:37:46.318Z,3.13
2018-06-27T21:40:16.359Z,5.93
2018-06-27T21:42:45.607Z,2.50
2018-06-27T21:45:14.997Z,4.13
2018-06-27T21:47:44.266Z,3.10
2018-06-27T21:50:13.564Z,2.93
2018-06-27T21:52:42.940Z,3.63
2018-06-27T21:55:12.257Z,4.23
2018-06-27T21:57:41.873Z,4.00
2018-06-27T22:00:12.338Z,2.07
2018-06-27T22:15:36.661Z,5.00
2018-06-27T22:18:05.998Z,2.27
2018-06-27T22:20:35.988Z,2.60
2018-06-27T22:23:05.248Z,3.00
2018-06-27T22:25:35.060Z,4.33
2018-06-27T22:28:04.451Z,6.13
2018-06-27T22:30:34.007Z,2.23
2018-06-27T22:33:08.433Z,2.20
2018-06-27T22:35:37.684Z,3.23
2018-06-27T22:38:06.976Z,3.67
2018-06-27T22:40:36.693Z,2.43
2018-06-27T22:43:06.033Z,2.43
2018-06-27T22:45:35.605Z,2.20
2018-06-27T22:48:05.581Z,4.03
2018-06-27T22:50:35.276Z,4.97
2018-06-27T22:53:04.743Z,3.87
2018-06-27T22:55:34.048Z,4.03
2018-06-27T22:58:03.707Z,6.13
2018-06-27T23:00:32.972Z,2.83
2018-06-27T23:03:02.281Z,3.67
2018-06-27T23:05:32.040Z,3.30
2018-06-27T23:08:01.285Z,3.03
2018-06-27T23:10:30.598Z,2.27
2018-06-27T23:13:03.689Z,2.90
2018-06-27T23:15:32.987Z,2.60
2018-06-27T23:18:02.268Z,3.07
2018-06-27T23:20:31.548Z,2.03
2018-06-27T23:23:01.610Z,2.77
2018-06-27T23:25:31.362Z,2.53
2018-06-27T23:28:00.652Z,3.10
2018-06-27T23:30:29.888Z,2.80
2018-06-27T23:32:59.117Z,3.10
2018-06-27T23:35:28.350Z,2.80
2018-06-27T23:37:57.620Z,3.87
2018-06-27T23:40:26.892Z,3.47
2018-06-27T23:42:56.126Z,2.90
2018-06-27T23:45:25.376Z,2.70
2018-06-27T23:47:54.604Z,2.70
2018-06-27T23:50:23.851Z,2.50
2018-06-27T23:52:53.084Z,2.87
2018-06-27T23:55:22.331Z,2.67
2018-06-27T23:57:51.585Z,3.90
